METAR Data
IDs: Format: Raw Decoded Include TAF

Data at: 1549 UTC 21 Sep 2018

KVQQ 211450Z VRB04KT 10SM BKN033 32/22 A3014
KVQQ 211350Z VRB03KT 10SM FEW045 30/24 A3013
KVQQ 211250Z 36004KT 10SM CLR 26/23 A3013
KVQQ 211150Z 00000KT 10SM CLR 21/20 A3011
KVQQ 211050Z 00000KT 10SM CLR 20/20 A3010
KVQQ 211035Z AUTO 00000KT 5SM BR CLR 20/19 A3010 RMK AO2
KVQQ 211015Z AUTO 00000KT 4SM BR CLR 21/20 A3009 RMK AO2
KVQQ 210955Z AUTO 00000KT 9SM CLR 21/21 A3009 RMK AO2
KVQQ 210935Z AUTO 00000KT 1 1/4SM BR CLR 21/21 A3008 RMK AO2
KVQQ 210915Z AUTO 00000KT 7SM CLR 21/20 A3008 RMK AO2
KVQQ 210855Z AUTO 00000KT 8SM CLR 21/20 A3007 RMK AO2
KVQQ 210835Z AUTO 00000KT 7SM CLR 21/21 A3007 RMK AO2
KVQQ 210815Z AUTO 00000KT 8SM CLR 22/21 A3007 RMK AO2
KVQQ 210755Z AUTO 04003KT 10SM CLR 22/21 A3007 RMK AO2
KVQQ 210735Z AUTO 00000KT 9SM CLR 22/21 A3008 RMK AO2
KVQQ 210715Z AUTO 00000KT 9SM CLR 22/21 A3008 RMK AO2
KVQQ 210655Z AUTO 00000KT 10SM CLR 22/21 A3008 RMK AO2
KVQQ 210635Z AUTO 00000KT 10SM FEW021 FEW027 FEW035 22/21 A3009 RMK AO2
KVQQ 210615Z AUTO 00000KT 10SM CLR 23/22 A3009 RMK AO2
KVQQ 210555Z AUTO 00000KT 10SM CLR 23/22 A3010 RMK AO2
KVQQ 210535Z AUTO 00000KT 10SM CLR 23/22 A3010 RMK AO2
KVQQ 210515Z AUTO 00000KT 10SM CLR 23/22 A3010 RMK AO2
KVQQ 210455Z AUTO 00000KT 10SM CLR 23/22 A3011 RMK AO2
KVQQ 210435Z AUTO 00000KT 10SM CLR 24/22 A3011 RMK AO2
KVQQ 210415Z AUTO 00000KT 10SM CLR 25/23 A3011 RMK AO2
KVQQ 210355Z AUTO 00000KT 10SM CLR 25/23 A3011 RMK AO2
KVQQ 210335Z AUTO 00000KT 10SM CLR 26/23 A3011 RMK AO2
KVQQ 210315Z AUTO 00000KT 10SM CLR 26/23 A3011 RMK AO2
KVQQ 210250Z 07005KT 10SM FEW030 FEW042 27/23 A3011
KVQQ 210150Z 08005KT 10SM FEW029 FEW036 27/23 A3010
KVQQ 210050Z 09006KT 10SM FEW028 27/23 A3008
KVQQ 202350Z 09006KT 10SM FEW030 28/22 A3006
KVQQ 202250Z 08008KT 10SM FEW030 30/22 A3004
KVQQ 202150Z 09011KT 10SM SCT039 32/22 A3004
KVQQ 202050Z 09011KT 10SM SCT042 34/22 A3003
KVQQ 201950Z 07010KT 10SM SCT042 34/23 A3004
KVQQ 201850Z 04011KT 10SM SCT042 35/23 A3005
KVQQ 201750Z 03009KT 10SM SCT042 34/23 A3007
KVQQ 201650Z 03009KT 10SM SCT038 34/24 A3008
KVQQ 201550Z 05008KT 10SM SCT035 34/23 A3010
KVQQ 201450Z 04007KT 10SM CLR 33/24 A3009
KVQQ 201350Z 02005KT 10SM CLR 30/25 A3008
KVQQ 201250Z 03003KT 10SM SCT060 27/24 A3006
KVQQ 201150Z 01005KT 10SM BKN055 23/23 A3004
KVQQ 201050Z VRB04KT 10SM FEW055 23/22 A3002
KVQQ 201035Z AUTO 00000KT 9SM FEW080 23/22 A3001 RMK AO2
KVQQ 201015Z AUTO 00000KT 10SM BKN075 23/22 A3001 RMK AO2
KVQQ 200955Z AUTO 00000KT 9SM OVC075 23/22 A3000 RMK AO2
KVQQ 200935Z AUTO 00000KT 9SM OVC075 22/22 A2999 RMK AO2
KVQQ 200915Z AUTO 00000KT 9SM OVC075 22/22 A2999 RMK AO2
KVQQ 200855Z AUTO 00000KT 9SM SCT075 22/22 A2999 RMK AO2
KVQQ 200835Z AUTO 00000KT 6SM BR CLR 22/22 A2999 RMK AO2
KVQQ 200815Z AUTO 00000KT 8SM CLR 23/22 A2999 RMK AO2
KVQQ 200755Z AUTO 00000KT 7SM CLR 22/22 A2999 RMK AO2
KVQQ 200735Z AUTO 00000KT 9SM CLR 22/21 A2999 RMK AO2
KVQQ 200715Z AUTO 00000KT 8SM CLR 23/22 A2999 RMK AO2
KVQQ 200655Z AUTO 00000KT 10SM CLR 23/22 A2999 RMK AO2
KVQQ 200635Z AUTO 00000KT 7SM CLR 22/22 A2999 RMK AO2
KVQQ 200615Z AUTO 00000KT 9SM CLR 23/22 A2999 RMK AO2
KVQQ 200555Z AUTO 00000KT 10SM CLR 23/22 A3000 RMK AO2 LTG DSNT S
KVQQ 200535Z AUTO 00000KT 10SM CLR 23/22 A3000 RMK AO2
KVQQ 200515Z AUTO 00000KT 10SM CLR 23/22 A3000 RMK AO2
KVQQ 200455Z AUTO 00000KT 10SM CLR 24/22 A3001 RMK AO2
KVQQ 200435Z AUTO 00000KT 10SM CLR 24/22 A3000 RMK AO2
KVQQ 200415Z AUTO 00000KT 10SM CLR 24/23 A3000 RMK AO2
KVQQ 200355Z AUTO 00000KT 10SM CLR 24/23 A3000 RMK AO2